Time;durP1;ratioP1;P1;durP2;ratioP2;P2;SDS_P1;SDS_P2;PMS_P1;PMS_P2;Temp;Humidity;BMP_temperature;BMP_pressure;BME280_temperature;BME280_humidity;BME280_pressure;Samples;Min_cycle;Max_cycle;Signal;HPM_P1;HPM_P2
2022/08/15 00:00:34;;;;;;;3.17;2.33;;;24.70;99.90;;;;;;5049336;28;20092;-76
2022/08/15 00:03:00;;;;;;;6.25;2.40;;;24.70;99.90;;;;;;5048934;28;20105;-75
2022/08/15 00:05:28;;;;;;;5.03;3.00;;;24.60;99.90;;;;;;5049228;28;20374;-75
2022/08/15 00:07:54;;;;;;;3.28;2.05;;;24.60;99.90;;;;;;5050076;28;20021;-76
2022/08/15 00:10:21;;;;;;;3.95;2.58;;;24.50;99.90;;;;;;5050877;28;20525;-77
2022/08/15 00:12:49;;;;;;;7.22;2.17;;;24.50;99.90;;;;;;5049570;28;20606;-75
2022/08/15 00:15:19;;;;;;;5.25;2.05;;;24.40;99.90;;;;;;5050516;28;20088;-76
2022/08/15 00:17:47;;;;;;;10.02;2.83;;;24.40;99.90;;;;;;5050806;28;20472;-76
2022/08/15 00:20:13;;;;;;;2.55;1.73;;;24.30;99.90;;;;;;5053345;28;20169;-77
2022/08/15 00:22:51;;;;;;;4.38;2.58;;;24.30;99.90;;;;;;5053727;28;20046;-76
2022/08/15 00:25:18;;;;;;;2.75;2.08;;;24.20;99.90;;;;;;5054507;28;20017;-76
2022/08/15 00:27:44;;;;;;;4.18;2.38;;;24.20;99.90;;;;;;5054412;28;20017;-77
2022/08/15 00:30:13;;;;;;;5.18;2.10;;;24.10;99.90;;;;;;5054170;28;20421;-76
2022/08/15 00:32:39;;;;;;;4.68;2.80;;;24.10;99.90;;;;;;5053721;28;20021;-76
2022/08/15 00:35:35;;;;;;;3.10;2.20;;;24.00;99.90;;;;;;5053885;28;20017;-74
2022/08/15 00:37:56;;;;;;;4.90;2.40;;;24.00;99.90;;;;;;5054882;28;20090;-75
2022/08/15 00:40:24;;;;;;;4.20;2.13;;;24.00;99.90;;;;;;5053730;28;20049;-76
2022/08/15 00:42:51;;;;;;;4.82;2.78;;;23.90;99.90;;;;;;5053581;28;20021;-76
2022/08/15 00:45:20;;;;;;;7.93;2.72;;;23.90;99.90;;;;;;5054276;28;20028;-75
2022/08/15 00:48:41;;;;;;;3.45;2.22;;;23.90;99.90;;;;;;5054720;28;20029;-75
2022/08/15 00:50:33;;;;;;;2.10;1.60;;;23.90;99.90;;;;;;5053112;28;20038;-74
2022/08/15 00:53:03;;;;;;;2.70;1.90;;;23.80;99.90;;;;;;5054112;28;20021;-75
2022/08/15 00:55:30;;;;;;;3.63;2.20;;;23.90;99.90;;;;;;5053315;28;20076;-75
2022/08/15 00:57:56;;;;;;;4.45;2.55;;;23.80;99.90;;;;;;5052491;28;20025;-76
2022/08/15 01:00:28;;;;;;;4.45;2.70;;;23.80;99.90;;;;;;5054537;28;20043;-77
2022/08/15 01:02:59;;;;;;;4.18;2.17;;;23.80;99.90;;;;;;5050132;28;20102;-76
2022/08/15 01:05:24;;;;;;;4.90;2.42;;;23.80;99.90;;;;;;5053362;28;20061;-76
2022/08/15 01:07:50;;;;;;;9.35;2.45;;;23.70;99.90;;;;;;5054109;28;20021;-75
2022/08/15 01:10:16;;;;;;;3.97;2.00;;;23.70;99.90;;;;;;5035584;28;20040;-75
2022/08/15 01:12:42;;;;;;;3.80;2.55;;;23.70;99.90;;;;;;5053784;28;20030;-76
2022/08/15 01:15:11;;;;;;;4.43;2.30;;;23.70;99.90;;;;;;5054107;28;20084;-75
2022/08/15 01:17:37;;;;;;;4.40;2.40;;;23.70;99.90;;;;;;5034193;28;20034;-75
2022/08/15 01:20:20;;;;;;;3.55;2.20;;;23.60;99.90;;;;;;5036947;28;20025;-76
2022/08/15 01:23:11;;;;;;;4.40;2.80;;;23.60;99.90;;;;;;5052911;28;20025;-75
2022/08/15 01:25:53;;;;;;;5.53;2.25;;;23.60;99.90;;;;;;5053634;28;20572;-76
2022/08/15 01:28:26;;;;;;;4.32;2.33;;;23.60;99.90;;;;;;5034686;28;20033;-75
2022/08/15 01:31:06;;;;;;;3.03;2.10;;;23.50;99.90;;;;;;5052262;28;20025;-76
2022/08/15 01:33:41;;;;;;;4.13;2.67;;;23.50;99.90;;;;;;5051882;28;20561;-75
2022/08/15 01:36:08;;;;;;;4.05;2.50;;;23.40;99.90;;;;;;5033211;28;20036;-75
2022/08/15 01:38:41;;;;;;;3.40;2.20;;;23.40;99.90;;;;;;5051642;28;20072;-77
2022/08/15 01:41:32;;;;;;;3.42;2.33;;;23.40;99.90;;;;;;5052719;28;20020;-75
2022/08/15 01:44:11;;;;;;;3.38;2.10;;;23.40;99.90;;;;;;5052311;28;20037;-76
2022/08/15 01:46:42;;;;;;;5.78;2.55;;;23.40;99.90;;;;;;5052750;28;20033;-73
2022/08/15 01:49:18;;;;;;;16.25;2.78;;;23.30;99.90;;;;;;5052804;28;20044;-75
2022/08/15 01:51:44;;;;;;;4.38;2.40;;;23.30;99.90;;;;;;5035077;28;20040;-75
2022/08/15 01:54:12;;;;;;;4.00;2.50;;;23.30;99.90;;;;;;5052967;28;20026;-75
2022/08/15 01:56:42;;;;;;;4.13;2.65;;;23.20;99.90;;;;;;5052765;28;20037;-75
2022/08/15 01:59:14;;;;;;;4.78;2.30;;;23.20;99.90;;;;;;5052717;28;20101;-75
2022/08/15 02:01:51;;;;;;;11.95;2.83;;;23.20;99.90;;;;;;5052511;28;20041;-77
2022/08/15 02:04:20;;;;;;;3.85;2.30;;;23.20;99.90;;;;;;5034855;28;20063;-76
2022/08/15 02:06:45;;;;;;;4.32;2.47;;;23.20;99.90;;;;;;5052117;28;20076;-74
2022/08/15 02:09:16;;;;;;;6.43;2.53;;;23.20;99.90;;;;;;5052680;28;20497;-76
2022/08/15 02:11:42;;;;;;;4.03;2.45;;;23.20;99.90;;;;;;5052413;28;20017;-75
2022/08/15 02:14:11;;;;;;;6.63;2.60;;;23.10;99.90;;;;;;5052466;28;20025;-75
2022/08/15 02:16:39;;;;;;;5.00;2.97;;;23.10;99.90;;;;;;5052329;28;20028;-76
2022/08/15 02:19:08;;;;;;;4.30;2.38;;;23.10;99.90;;;;;;5052671;28;20044;-76
2022/08/15 02:21:35;;;;;;;7.65;3.13;;;23.10;99.90;;;;;;5051317;28;20037;-76
2022/08/15 02:24:03;;;;;;;3.33;2.35;;;23.00;99.90;;;;;;5034860;28;20052;-75
2022/08/15 02:26:28;;;;;;;5.60;2.00;;;23.00;99.90;;;;;;5051849;28;20031;-76
2022/08/15 02:28:54;;;;;;;3.92;1.95;;;23.00;99.90;;;;;;5052469;28;20062;-77
2022/08/15 02:31:25;;;;;;;7.40;3.20;;;22.90;99.90;;;;;;5052219;28;20055;-76
2022/08/15 02:33:56;;;;;;;3.95;2.40;;;22.90;99.90;;;;;;5034070;28;20047;-76
2022/08/15 02:36:23;;;;;;;6.88;2.80;;;22.90;99.90;;;;;;5051917;28;20029;-78
2022/08/15 02:38:50;;;;;;;11.73;2.88;;;22.80;99.90;;;;;;5051953;28;20041;-76
2022/08/15 02:41:22;;;;;;;3.25;1.90;;;22.90;99.90;;;;;;5051283;28;20056;-76
2022/08/15 02:43:49;;;;;;;6.47;2.60;;;22.80;99.90;;;;;;5051809;28;20026;-78
2022/08/15 02:46:16;;;;;;;6.63;2.63;;;22.90;99.90;;;;;;5051459;28;20029;-76
2022/08/15 02:48:43;;;;;;;6.13;2.67;;;22.80;99.90;;;;;;5051939;28;20029;-76
2022/08/15 02:51:12;;;;;;;5.43;3.00;;;22.80;99.90;;;;;;5051657;28;20067;-76
2022/08/15 02:53:37;;;;;;;8.50;2.40;;;22.80;99.90;;;;;;5032878;28;20507;-76
2022/08/15 02:56:07;;;;;;;3.95;2.20;;;22.80;99.90;;;;;;5051782;28;20037;-75
2022/08/15 02:58:34;;;;;;;3.53;2.40;;;22.70;99.90;;;;;;5051780;28;20535;-77
2022/08/15 03:01:00;;;;;;;4.32;2.40;;;22.70;99.90;;;;;;5051468;28;20026;-75
2022/08/15 03:03:26;;;;;;;3.75;2.40;;;22.70;99.90;;;;;;5051373;28;20032;-77
2022/08/15 03:05:53;;;;;;;5.03;2.33;;;22.60;99.90;;;;;;5050662;28;20068;-75
2022/08/15 03:08:20;;;;;;;3.95;2.58;;;22.70;99.90;;;;;;5032944;28;20029;-75
2022/08/15 03:10:47;;;;;;;4.00;1.98;;;22.60;99.90;;;;;;5033353;28;20021;-76
2022/08/15 03:13:14;;;;;;;3.63;2.33;;;22.50;99.90;;;;;;5051545;28;20018;-76
2022/08/15 03:15:45;;;;;;;5.25;2.78;;;22.50;99.90;;;;;;5051241;28;20077;-75
2022/08/15 03:18:12;;;;;;;13.52;2.88;;;22.40;99.90;;;;;;5051619;28;20036;-74
2022/08/15 03:20:39;;;;;;;5.03;2.45;;;22.40;99.90;;;;;;5050549;28;20033;-75
2022/08/15 03:23:07;;;;;;;2.58;1.95;;;22.40;99.90;;;;;;5040393;28;20593;-74
2022/08/15 03:25:41;;;;;;;4.00;2.17;;;22.30;99.90;;;;;;5051344;28;20048;-75
2022/08/15 03:28:08;;;;;;;3.67;2.40;;;22.30;99.90;;;;;;5051387;28;20559;-76
2022/08/15 03:30:35;;;;;;;6.53;3.00;;;22.30;99.90;;;;;;5050905;28;20084;-75
2022/08/15 03:33:02;;;;;;;5.35;2.40;;;22.30;99.90;;;;;;5033301;28;20049;-75
2022/08/15 03:35:31;;;;;;;3.85;2.47;;;22.30;99.90;;;;;;5033520;28;20049;-77
2022/08/15 03:37:59;;;;;;;4.00;2.47;;;22.20;99.90;;;;;;5033157;28;20138;-76
2022/08/15 03:40:25;;;;;;;4.57;2.63;;;22.20;99.90;;;;;;5032761;28;20037;-77
2022/08/15 03:42:57;;;;;;;3.78;2.22;;;22.20;99.90;;;;;;5050115;28;20061;-76
2022/08/15 03:45:25;;;;;;;3.55;2.50;;;22.10;99.90;;;;;;5051283;28;20025;-77
2022/08/15 03:47:50;;;;;;;3.03;1.85;;;22.10;99.90;;;;;;5032816;28;20021;-76
2022/08/15 03:50:16;;;;;;;4.50;2.15;;;22.20;99.90;;;;;;5032003;28;20032;-76
2022/08/15 03:52:52;;;;;;;2.70;2.08;;;22.20;99.90;;;;;;5050797;28;20021;-74
2022/08/15 03:55:19;;;;;;;4.00;2.30;;;22.10;99.90;;;;;;5053184;28;20048;-76
2022/08/15 03:57:45;;;;;;;5.50;2.80;;;22.10;99.90;;;;;;5055149;28;20025;-77
2022/08/15 04:00:14;;;;;;;2.90;2.10;;;22.10;99.90;;;;;;5054911;28;20052;-76
2022/08/15 04:02:40;;;;;;;4.88;2.45;;;22.10;99.90;;;;;;5051941;28;20021;-77
2022/08/15 04:05:13;;;;;;;5.30;3.03;;;22.10;99.90;;;;;;5052289;28;20052;-77
2022/08/15 04:07:39;;;;;;;4.10;1.88;;;22.10;99.90;;;;;;5036795;28;20035;-78
2022/08/15 04:10:17;;;;;;;11.77;3.00;;;22.00;99.90;;;;;;5054441;28;20032;-78
2022/08/15 04:12:44;;;;;;;4.28;2.70;;;22.10;99.90;;;;;;5036725;28;20041;-76
2022/08/15 04:15:14;;;;;;;3.20;2.28;;;22.00;99.90;;;;;;5053987;28;20032;-76
2022/08/15 04:17:40;;;;;;;5.57;2.40;;;22.00;99.90;;;;;;5054225;28;20088;-77
2022/08/15 04:20:09;;;;;;;5.57;2.78;;;22.00;99.90;;;;;;5054135;28;20068;-78
2022/08/15 04:22:38;;;;;;;3.80;1.83;;;22.00;99.90;;;;;;5036152;28;20022;-78
2022/08/15 04:25:11;;;;;;;4.90;2.58;;;21.90;99.90;;;;;;5054475;28;20036;-76
2022/08/15 04:27:37;;;;;;;6.35;2.83;;;22.00;99.90;;;;;;5054781;28;20032;-76
2022/08/15 04:30:06;;;;;;;3.70;2.05;;;22.00;99.90;;;;;;5053841;28;20025;-77
2022/08/15 04:32:32;;;;;;;5.75;2.40;;;22.00;99.90;;;;;;5053721;28;20033;-75
2022/08/15 04:34:59;;;;;;;3.85;2.25;;;22.00;99.90;;;;;;5036431;28;20097;-76
2022/08/15 04:37:26;;;;;;;5.78;2.50;;;22.00;99.90;;;;;;5054494;28;20389;-76
2022/08/15 04:39:53;;;;;;;4.75;2.38;;;22.00;99.90;;;;;;5053643;28;20065;-77
2022/08/15 04:42:20;;;;;;;4.00;2.97;;;22.00;99.90;;;;;;5035198;28;21252;-76
2022/08/15 04:44:47;;;;;;;8.05;2.70;;;22.00;99.90;;;;;;5053877;28;20102;-76
2022/08/15 04:47:14;;;;;;;3.67;2.22;;;22.00;99.90;;;;;;5053543;28;20025;-76
2022/08/15 04:49:40;;;;;;;3.67;2.15;;;22.00;99.90;;;;;;5036153;28;20029;-74
2022/08/15 04:52:16;;;;;;;4.38;2.80;;;22.00;99.90;;;;;;5035128;28;20029;-75
2022/08/15 04:54:43;;;;;;;5.40;3.35;;;22.00;99.90;;;;;;5035394;28;20474;-76
2022/08/15 04:57:09;;;;;;;7.07;2.15;;;22.00;99.90;;;;;;5048064;28;20046;-78
2022/08/15 04:59:36;;;;;;;4.68;1.92;;;22.00;99.90;;;;;;5050058;28;20087;-76
2022/08/15 05:02:07;;;;;;;13.95;2.65;;;22.00;99.90;;;;;;5036277;28;20024;-77
2022/08/15 05:04:36;;;;;;;6.18;2.65;;;22.00;99.90;;;;;;5052775;28;20021;-78
2022/08/15 05:07:01;;;;;;;5.22;2.47;;;22.00;99.90;;;;;;5034444;28;20059;-77
2022/08/15 05:09:27;;;;;;;6.75;2.75;;;22.00;99.90;;;;;;5054293;28;20037;-76
2022/08/15 05:11:52;;;;;;;2.60;1.83;;;22.00;99.90;;;;;;5051177;28;20028;-73
2022/08/15 05:14:21;;;;;;;3.17;2.35;;;22.00;99.90;;;;;;5052701;28;20029;-74
2022/08/15 05:16:46;;;;;;;4.93;2.38;;;21.90;99.90;;;;;;5053722;28;20030;-72
2022/08/15 05:19:12;;;;;;;3.63;2.33;;;21.90;99.90;;;;;;5034625;28;20096;-74
2022/08/15 05:21:39;;;;;;;4.65;2.30;;;21.90;99.90;;;;;;5035384;28;20029;-75
2022/08/15 05:24:05;;;;;;;5.15;2.53;;;21.90;99.90;;;;;;5053935;28;20108;-73
2022/08/15 05:26:31;;;;;;;2.90;2.00;;;21.90;99.90;;;;;;5053139;28;20056;-75
2022/08/15 05:28:57;;;;;;;3.55;2.35;;;21.90;99.90;;;;;;5052678;28;20036;-75
2022/08/15 05:31:23;;;;;;;9.82;2.78;;;21.90;99.90;;;;;;5052616;28;20021;-75
2022/08/15 05:33:49;;;;;;;3.72;2.78;;;21.80;99.90;;;;;;5050266;28;20086;-75
2022/08/15 05:36:16;;;;;;;4.60;2.30;;;21.90;99.90;;;;;;5054064;28;20036;-75
2022/08/15 05:38:46;;;;;;;5.57;2.80;;;21.90;99.90;;;;;;5052672;28;20489;-74
2022/08/15 05:41:18;;;;;;;2.90;2.30;;;21.90;99.90;;;;;;5051055;28;20033;-74
2022/08/15 05:44:06;;;;;;;4.68;2.53;;;22.00;99.90;;;;;;5053771;28;20088;-75
2022/08/15 05:46:58;;;;;;;6.10;3.08;;;22.00;99.90;;;;;;5053001;28;20025;-73
2022/08/15 05:50:06;;;;;;;21.17;3.00;;;22.00;99.90;;;;;;5051207;28;20057;-75
2022/08/15 05:52:46;;;;;;;11.90;2.63;;;22.00;99.90;;;;;;5049010;28;20123;-75
2022/08/15 05:55:30;;;;;;;6.72;2.85;;;22.00;99.90;;;;;;5052408;28;20076;-74
2022/08/15 05:58:05;;;;;;;6.53;2.03;;;22.10;99.90;;;;;;5035247;28;20030;-75
2022/08/15 06:00:33;;;;;;;3.58;2.10;;;22.10;99.90;;;;;;5051125;28;20041;-75
2022/08/15 06:03:24;;;;;;;9.52;3.25;;;22.20;99.90;;;;;;5050865;28;20049;-73
2022/08/15 06:05:55;;;;;;;6.57;2.97;;;22.20;99.90;;;;;;5051025;28;20045;-74
2022/08/15 06:08:25;;;;;;;4.03;2.65;;;22.20;99.90;;;;;;5050306;28;20093;-74
2022/08/15 06:10:58;;;;;;;5.18;2.70;;;22.30;99.90;;;;;;5053109;28;20029;-74
2022/08/15 06:13:40;;;;;;;5.32;2.38;;;22.30;99.90;;;;;;5053191;28;20052;-75
2022/08/15 06:16:25;;;;;;;3.97;2.50;;;22.40;99.90;;;;;;5034047;28;20021;-75
2022/08/15 06:18:53;;;;;;;5.22;3.15;;;22.40;99.90;;;;;;5034728;28;20458;-74
2022/08/15 06:21:34;;;;;;;5.85;2.78;;;22.50;99.90;;;;;;5049600;28;20021;-74
2022/08/15 06:24:28;;;;;;;3.72;2.38;;;22.50;99.90;;;;;;5050003;28;20063;-75
2022/08/15 06:27:30;;;;;;;5.95;3.13;;;22.60;99.90;;;;;;5032878;28;20040;-74
2022/08/15 06:30:02;;;;;;;4.35;2.50;;;22.60;99.90;;;;;;5051654;28;20033;-74
2022/08/15 06:32:41;;;;;;;3.22;2.55;;;22.70;99.90;;;;;;5050121;28;20091;-74
2022/08/15 06:35:31;;;;;;;3.92;2.65;;;22.70;99.90;;;;;;5052597;28;20080;-75
2022/08/15 06:38:25;;;;;;;6.45;3.03;;;22.80;99.90;;;;;;5051854;28;20049;-73
2022/08/15 06:40:59;;;;;;;5.47;3.10;;;22.80;99.90;;;;;;5048255;28;20037;-74
2022/08/15 06:43:25;;;;;;;4.43;2.30;;;22.90;99.90;;;;;;5032800;28;20159;-75
2022/08/15 06:45:54;;;;;;;4.00;2.78;;;22.90;99.90;;;;;;5051061;28;20032;-74
2022/08/15 06:48:29;;;;;;;4.60;2.53;;;23.00;99.90;;;;;;5049907;28;20029;-75
2022/08/15 06:51:00;;;;;;;5.60;3.17;;;22.90;99.90;;;;;;5050333;28;20037;-74
2022/08/15 06:53:48;;;;;;;4.05;2.28;;;22.90;99.90;;;;;;5030993;28;20055;-75
2022/08/15 06:56:38;;;;;;;5.50;2.72;;;23.00;99.90;;;;;;5051200;28;20057;-75
2022/08/15 06:59:10;;;;;;;4.80;2.65;;;23.00;99.90;;;;;;5047978;28;20037;-74
2022/08/15 07:01:58;;;;;;;3.92;2.35;;;23.10;99.90;;;;;;5049829;28;20057;-75
2022/08/15 07:04:35;;;;;;;5.43;3.03;;;23.20;99.90;;;;;;5032109;28;20051;-74
2022/08/15 07:07:13;;;;;;;4.78;2.75;;;23.20;99.90;;;;;;5012221;28;20095;-74
2022/08/15 07:10:06;;;;;;;7.25;3.15;;;23.30;99.90;;;;;;5014173;28;20080;-73
2022/08/15 07:12:49;;;;;;;12.07;3.17;;;23.30;99.90;;;;;;5030008;28;20108;-74
2022/08/15 07:15:26;;;;;;;5.15;3.05;;;23.40;99.90;;;;;;5031978;28;20029;-74
2022/08/15 07:17:58;;;;;;;3.70;2.42;;;23.40;99.90;;;;;;5030664;28;20076;-74
2022/08/15 07:20:24;;;;;;;6.55;3.63;;;23.50;99.90;;;;;;5031251;28;20056;-75
2022/08/15 07:22:51;;;;;;;7.80;4.05;;;23.50;99.90;;;;;;5031664;28;20018;-75
2022/08/15 07:25:24;;;;;;;5.00;2.80;;;23.60;99.90;;;;;;5013713;28;20048;-74
2022/08/15 07:28:00;;;;;;;4.88;2.78;;;23.50;99.90;;;;;;5030650;28;20030;-75
2022/08/15 07:30:54;;;;;;;3.58;2.42;;;23.50;99.90;;;;;;5031110;28;20028;-77
2022/08/15 07:33:37;;;;;;;6.50;3.40;;;23.50;99.90;;;;;;5030571;28;20036;-74
2022/08/15 07:36:30;;;;;;;4.93;3.25;;;23.60;99.90;;;;;;5031696;28;20030;-74
2022/08/15 07:38:56;;;;;;;4.63;3.15;;;23.50;99.90;;;;;;5021307;28;20128;-75
2022/08/15 07:41:29;;;;;;;9.40;3.20;;;23.60;99.90;;;;;;5014162;28;20041;-74
2022/08/15 07:44:15;;;;;;;7.03;3.83;;;23.60;99.90;;;;;;5031713;28;20138;-75
2022/08/15 07:47:08;;;;;;;11.68;3.03;;;23.60;99.90;;;;;;5013901;28;20796;-75
2022/08/15 07:49:36;;;;;;;8.02;3.00;;;23.60;99.90;;;;;;5030327;28;20091;-74
2022/08/15 07:52:10;;;;;;;6.10;2.67;;;23.70;99.90;;;;;;5029960;28;20029;-73
2022/08/15 07:54:42;;;;;;;4.45;2.88;;;23.70;99.90;;;;;;5031279;28;20022;-73
2022/08/15 07:57:20;;;;;;;3.88;2.47;;;23.80;99.90;;;;;;5009881;28;20037;-74
2022/08/15 08:00:13;;;;;;;5.45;3.30;;;23.90;99.90;;;;;;5030964;28;20036;-73
2022/08/15 08:02:53;;;;;;;5.30;3.92;;;23.90;99.90;;;;;;5012312;28;20029;-74
2022/08/15 08:05:22;;;;;;;8.13;3.97;;;24.00;99.90;;;;;;5037886;28;20087;-75
2022/08/15 08:07:51;;;;;;;8.52;3.15;;;24.00;99.90;;;;;;5051064;28;20507;-74
2022/08/15 08:10:27;;;;;;;4.25;2.75;;;24.10;99.90;;;;;;5032453;28;20037;-75
2022/08/15 08:13:11;;;;;;;9.57;3.45;;;24.20;99.90;;;;;;5033751;28;20037;-74
2022/08/15 08:15:44;;;;;;;6.40;3.13;;;24.20;99.90;;;;;;5051051;28;20044;-74
2022/08/15 08:18:12;;;;;;;12.90;4.27;;;24.30;99.90;;;;;;5051498;28;20032;-75
2022/08/15 08:20:55;;;;;;;7.18;3.58;;;24.30;99.90;;;;;;5050776;28;20037;-75
2022/08/15 08:23:33;;;;;;;6.25;3.03;;;24.40;99.90;;;;;;5049614;28;20032;-75
2022/08/15 08:26:26;;;;;;;5.15;3.20;;;24.50;99.90;;;;;;5050726;28;20516;-74
2022/08/15 08:29:06;;;;;;;7.07;3.92;;;24.60;99.90;;;;;;5049737;28;20033;-75
2022/08/15 08:31:55;;;;;;;6.13;3.50;;;24.70;99.90;;;;;;5033176;28;20025;-74
2022/08/15 08:34:41;;;;;;;4.45;3.28;;;24.70;99.90;;;;;;5032472;28;20032;-74
2022/08/15 08:37:15;;;;;;;4.65;3.00;;;24.70;99.90;;;;;;5050883;28;20423;-74
2022/08/15 08:39:43;;;;;;;;;;;24.80;99.90;;;;;;5052257;28;20048;-73
2022/08/15 08:42:30;;;;;;;4.63;3.13;;;24.80;99.90;;;;;;5047856;28;19916;-75
2022/08/15 08:45:19;;;;;;;5.68;2.78;;;24.90;99.90;;;;;;5037501;28;20045;-76
2022/08/15 08:48:04;;;;;;;9.27;4.45;;;25.10;99.90;;;;;;5053491;28;20029;-74
2022/08/15 08:50:38;;;;;;;4.47;3.00;;;25.20;99.90;;;;;;5054071;28;20036;-75
2022/08/15 08:53:17;;;;;;;4.57;3.45;;;25.30;99.90;;;;;;5050243;28;20037;-74
2022/08/15 08:55:50;;;;;;;4.03;2.67;;;25.40;99.90;;;;;;5051907;28;20112;-75
2022/08/15 08:58:32;;;;;;;5.30;3.25;;;25.50;99.90;;;;;;5052654;28;20408;-73
2022/08/15 09:00:59;;;;;;;5.88;3.35;;;25.50;99.90;;;;;;5053718;28;20043;-75
2022/08/15 09:03:34;;;;;;;6.70;2.72;;;25.60;99.90;;;;;;5036337;28;20436;-75
2022/08/15 09:06:01;;;;;;;8.48;3.55;;;25.60;99.90;;;;;;5035795;28;20061;-75
2022/08/15 09:08:41;;;;;;;5.78;3.50;;;25.60;99.90;;;;;;5035591;28;20028;-74
2022/08/15 09:11:17;;;;;;;14.73;3.90;;;25.80;99.90;;;;;;5051524;28;20064;-75
2022/08/15 09:13:45;;;;;;;6.18;3.03;;;25.90;99.90;;;;;;5033942;28;20106;-75
2022/08/15 09:16:25;;;;;;;8.65;3.47;;;26.00;99.90;;;;;;5032196;28;20052;-76
2022/08/15 09:19:16;;;;;;;8.23;4.22;;;26.10;99.90;;;;;;5034785;28;20048;-75
2022/08/15 09:21:43;;;;;;;6.07;4.10;;;26.30;99.90;;;;;;5033423;28;20033;-74
2022/08/15 09:24:09;;;;;;;5.82;2.92;;;26.50;99.90;;;;;;5052047;28;20638;-75
2022/08/15 09:26:47;;;;;;;3.60;2.90;;;26.50;99.90;;;;;;5052603;28;20040;-75
2022/08/15 09:29:26;;;;;;;12.23;3.17;;;26.60;99.90;;;;;;5033115;28;20041;-75
2022/08/15 09:32:00;;;;;;;6.95;3.53;;;26.90;99.90;;;;;;5053291;28;20524;-76
2022/08/15 09:35:02;;;;;;;9.88;3.92;;;27.00;99.90;;;;;;5035516;28;20022;-76
2022/08/15 09:38:04;;;;;;;7.97;2.97;;;27.20;99.90;;;;;;5053382;28;20021;-74
2022/08/15 09:40:52;;;;;;;6.68;3.03;;;27.40;99.90;;;;;;5052961;28;20029;-74
2022/08/15 09:43:44;;;;;;;12.52;4.40;;;27.40;99.90;;;;;;5053975;28;20025;-73
2022/08/15 09:46:09;;;;;;;18.98;4.28;;;27.40;99.90;;;;;;5035260;28;20037;-73
2022/08/15 09:48:38;;;;;;;6.53;3.92;;;27.40;99.90;;;;;;5053036;28;20048;-75
2022/08/15 09:51:11;;;;;;;6.75;3.38;;;27.40;99.90;;;;;;5050417;28;20022;-75
2022/08/15 09:54:01;;;;;;;5.03;3.35;;;27.40;99.90;;;;;;5035343;28;20029;-76
2022/08/15 09:56:31;;;;;;;7.15;4.00;;;27.50;99.90;;;;;;5053049;28;20071;-75
2022/08/15 09:59:04;;;;;;;7.40;3.90;;;27.60;99.90;;;;;;5035551;28;20124;-74
2022/08/15 10:01:35;;;;;;;;;;;27.60;99.90;;;;;;5053681;28;20048;-74
2022/08/15 10:04:06;;;;;;;4.72;3.25;;;27.70;99.90;;;;;;5052424;28;19924;-73
2022/08/15 10:07:17;;;;;;;8.77;3.67;;;27.70;99.90;;;;;;5052192;28;20053;-74
2022/08/15 10:09:58;;;;;;;12.15;3.70;;;27.80;99.90;;;;;;5052343;28;20511;-74
2022/08/15 10:12:24;;;;;;;6.15;3.20;;;27.90;99.90;;;;;;5031650;28;20032;-76
2022/08/15 10:14:52;;;;;;;5.82;3.28;;;28.10;99.90;;;;;;5047630;28;20036;-74
2022/08/15 10:17:34;;;;;;;6.18;3.90;;;28.10;99.90;;;;;;5049078;28;20052;-73
2022/08/15 10:20:17;;;;;;;6.82;3.78;;;28.20;99.90;;;;;;5048676;28;20114;-75
2022/08/15 10:22:59;;;;;;;13.02;4.35;;;28.20;99.90;;;;;;5049385;28;20036;-74
2022/08/15 10:25:35;;;;;;;6.38;4.07;;;28.30;99.90;;;;;;5045956;28;20030;-74
2022/08/15 10:28:14;;;;;;;7.40;3.88;;;28.30;99.90;;;;;;5048991;28;20056;-74
2022/08/15 10:30:41;;;;;;;6.22;3.50;;;28.50;99.90;;;;;;5052558;28;20227;-73
2022/08/15 10:33:33;;;;;;;6.63;3.30;;;28.60;99.90;;;;;;5051767;28;20025;-74
2022/08/15 10:36:09;;;;;;;4.43;2.90;;;28.60;99.90;;;;;;5028934;28;20410;-75
2022/08/15 10:38:36;;;;;;;7.45;3.83;;;28.70;99.90;;;;;;5042848;28;20046;-75
2022/08/15 10:41:34;;;;;;;6.63;3.67;;;28.70;99.90;;;;;;5034469;28;20021;-75
2022/08/15 10:44:25;;;;;;;4.57;3.45;;;28.80;99.90;;;;;;5050887;28;20812;-75
2022/08/15 10:47:21;;;;;;;10.25;3.35;;;28.80;99.90;;;;;;5050920;28;20044;-75
2022/08/15 10:50:07;;;;;;;7.57;4.07;;;29.00;99.90;;;;;;5052222;28;20029;-75
2022/08/15 10:53:07;;;;;;;7.85;4.25;;;29.10;99.90;;;;;;5051019;28;20049;-76
2022/08/15 10:55:37;;;;;;;4.32;2.70;;;29.20;99.90;;;;;;5033865;28;20033;-74
2022/08/15 10:58:32;;;;;;;4.30;3.08;;;29.30;99.90;;;;;;5051969;28;20020;-75
2022/08/15 11:01:12;;;;;;;5.85;3.85;;;29.30;99.90;;;;;;5050503;28;20037;-74
2022/08/15 11:03:45;;;;;;;7.32;4.20;;;29.50;99.90;;;;;;5051384;28;20049;-76
2022/08/15 11:06:14;;;;;;;5.70;3.47;;;29.60;99.90;;;;;;5039157;28;20718;-73
2022/08/15 11:08:50;;;;;;;8.75;3.45;;;29.70;99.90;;;;;;5047969;28;20021;-75
2022/08/15 11:11:22;;;;;;;5.53;3.45;;;29.60;99.90;;;;;;5041573;28;20036;-76
2022/08/15 11:14:08;;;;;;;5.28;3.28;;;29.70;99.90;;;;;;5051842;28;20033;-74
2022/08/15 11:16:40;;;;;;;4.03;2.95;;;29.70;99.90;;;;;;5051027;28;20018;-74
2022/08/15 11:19:29;;;;;;;5.93;3.58;;;29.60;99.90;;;;;;5051270;28;20029;-75
2022/08/15 11:21:58;;;;;;;13.02;3.72;;;29.50;99.90;;;;;;5051526;28;20029;-75
2022/08/15 11:24:33;;;;;;;4.85;3.70;;;29.60;99.90;;;;;;5051519;28;20061;-74
2022/08/15 11:27:19;;;;;;;7.93;4.05;;;29.60;99.90;;;;;;5047462;28;20037;-72
2022/08/15 11:29:47;;;;;;;6.50;4.00;;;29.80;99.90;;;;;;5050532;28;20025;-75
2022/08/15 11:32:31;;;;;;;6.35;4.18;;;29.80;99.90;;;;;;5051127;28;20737;-74
2022/08/15 11:34:58;;;;;;;5.37;3.43;;;29.70;99.90;;;;;;5051099;28;20034;-74
2022/08/15 11:37:30;;;;;;;7.15;3.65;;;29.70;99.90;;;;;;5050719;28;20028;-75
2022/08/15 11:39:58;;;;;;;5.80;3.40;;;29.80;99.90;;;;;;5051724;28;20100;-73
2022/08/15 11:42:32;;;;;;;7.07;3.95;;;30.00;99.90;;;;;;5051456;28;20035;-75
2022/08/15 11:45:00;;;;;;;;;;;30.30;99.90;;;;;;5051819;28;20059;-74
2022/08/15 11:47:29;;;;;;;7.88;4.20;;;30.40;99.90;;;;;;5048389;28;19909;-76
2022/08/15 11:49:59;;;;;;;4.13;3.20;;;30.50;99.90;;;;;;5048545;28;20025;-75
2022/08/15 11:52:31;;;;;;;7.85;4.10;;;30.70;99.90;;;;;;5050770;28;20029;-74
2022/08/15 11:55:15;;;;;;;6.40;3.53;;;30.70;99.90;;;;;;5050808;28;20085;-76
2022/08/15 11:57:52;;;;;;;;;;;30.80;99.90;;;;;;5050855;28;20072;-75
2022/08/15 12:00:42;;;;;;;6.70;3.65;;;31.00;99.90;;;;;;5049646;28;20364;-75
2022/08/15 12:03:32;;;;;;;5.30;2.95;;;31.30;99.90;;;;;;5050491;28;20021;-73
2022/08/15 12:05:59;;;;;;;4.30;2.83;;;31.60;99.90;;;;;;5045267;28;20129;-73
2022/08/15 12:08:31;;;;;;;5.68;3.20;;;31.60;99.90;;;;;;5022830;28;20049;-74
2022/08/15 12:11:14;;;;;;;5.15;3.22;;;31.50;99.90;;;;;;5040517;28;20021;-74
2022/08/15 12:14:04;;;;;;;5.95;3.70;;;31.30;99.90;;;;;;5041045;28;20033;-74
2022/08/15 12:16:51;;;;;;;6.30;3.17;;;31.10;99.90;;;;;;5045251;28;20393;-74
2022/08/15 12:19:24;;;;;;;5.57;3.53;;;31.20;99.90;;;;;;5044884;28;20064;-76
2022/08/15 12:21:51;;;;;;;9.93;3.35;;;31.60;99.90;;;;;;5027252;28;20021;-73
2022/08/15 12:24:26;;;;;;;6.78;3.58;;;32.00;99.90;;;;;;5045714;28;20057;-74
2022/08/15 12:26:55;;;;;;;4.18;3.20;;;32.40;99.90;;;;;;5045139;28;20500;-77
2022/08/15 12:29:22;;;;;;;6.65;3.88;;;32.80;99.90;;;;;;5044956;28;20105;-75
2022/08/15 12:31:49;;;;;;;5.43;3.30;;;33.10;99.90;;;;;;5027675;28;20542;-72
2022/08/15 12:34:17;;;;;;;3.95;2.85;;;33.20;99.90;;;;;;5027221;28;20026;-72
2022/08/15 12:36:44;;;;;;;11.55;4.60;;;33.00;99.90;;;;;;5041918;28;20056;-73
2022/08/15 12:39:12;;;;;;;5.03;3.35;;;32.80;99.90;;;;;;5043339;28;20037;-71
2022/08/15 12:41:43;;;;;;;6.55;3.72;;;32.90;99.90;;;;;;5043237;28;20117;-73
2022/08/15 12:44:27;;;;;;;4.03;2.92;;;32.90;99.90;;;;;;5044683;28;20025;-73
2022/08/15 12:46:55;;;;;;;4.50;3.33;;;33.00;99.90;;;;;;5022798;28;20502;-74
2022/08/15 12:49:21;;;;;;;6.45;3.45;;;33.10;99.90;;;;;;5039380;28;20033;-74
2022/08/15 12:51:47;;;;;;;7.28;3.50;;;32.90;99.90;;;;;;5043687;28;20081;-74
2022/08/15 12:54:12;;;;;;;4.70;3.10;;;33.00;99.90;;;;;;5044733;28;20071;-74
2022/08/15 12:56:39;;;;;;;4.55;3.00;;;33.20;99.80;;;;;;5044509;28;20036;-74
2022/08/15 12:59:05;;;;;;;9.27;2.97;;;33.30;99.80;;;;;;5024270;28;20045;-72
2022/08/15 13:01:32;;;;;;;4.40;3.10;;;33.50;99.80;;;;;;5043668;28;20019;-72
2022/08/15 13:04:04;;;;;;;7.03;3.47;;;33.40;99.50;;;;;;5043443;28;20075;-74
2022/08/15 13:06:34;;;;;;;5.03;3.00;;;33.40;99.50;;;;;;5050902;28;20050;-72
2022/08/15 13:08:59;;;;;;;7.30;3.08;;;33.50;99.00;;;;;;5052901;28;20537;-73
2022/08/15 13:11:28;;;;;;;6.85;3.28;;;33.60;99.20;;;;;;5054227;28;20073;-73
2022/08/15 13:13:54;;;;;;;4.70;3.17;;;33.70;98.70;;;;;;5054201;28;20060;-76
2022/08/15 13:16:19;;;;;;;12.95;3.03;;;33.70;97.90;;;;;;5054284;28;20012;-72
2022/08/15 13:18:45;;;;;;;7.57;2.92;;;33.40;98.00;;;;;;5051833;28;20029;-74
2022/08/15 13:23:55;;;;;;;;;;;33.10;97.40;;;;;;5054614;28;20032;-74